Nearby METAR* Reports

*"METAR [Météorologique Aviation Régulière] is the international standard code format for hourly surface weather observations which is analogous to the SA coding currently used in the US. The acronym roughly translates from French as Aviation Routine Weather Report." (Source: https://www.ncdc.noaa.gov/wdcmet/data-access-search-viewer-tools/metar-terminal-aerodrome-forecast-taf-faq)

 

KTEB - Teterboro, New Jersey, USA
Distance from station: ENE 2mi, 3km
Updated: 09/22/2021 9:51pm
Mostly cloudy
Mostly cloudy
 Wind from S
Wind: S 8 mph , 13 km/h, Gust: 16 mph , 26 km/h
Temperature: 75°F , 24°C
Dew Point: 68°F , 20°C
Humidity: 78%
Barometer: 29.99 inHg , 1015.6 hPa
Clouds: Mostly cloudy
Visibility: 10 miles , 16 km
Cloud details: Few Clouds 2300 ft
Mostly cloudy 8500 ft
2021/09/23 01:51 KTEB 230151Z 17007G14KT 10SM FEW023 BKN085 24/20 A2999 RMK AO2 SLP156 T02390200
KNYC - Nyc/Central Park, New York, USA
Distance from station: SE 8mi, 13km
Updated: 09/22/2021 9:44pm
Partly cloudy
Partly cloudy
 
Temperature: 75°F , 24°C
Dew Point: 68°F , 20°C
Humidity: 78%
Barometer: 30.04 inHg , 1017.3 hPa
Clouds: Partly cloudy
Visibility: 10 miles , 16 km
Cloud details: Few Clouds 1900 ft
Partly cloudy 2800 ft
2021/09/23 01:44 KNYC 230144Z AUTO 10SM FEW019 SCT028 24/20 A3004 RMK AO2 T02390200 $
KCDW - Caldwell, New Jersey, USA
Distance from station: W 11mi, 17km
Updated: 09/22/2021 8:53pm
Few Clouds
Few Clouds
 Wind from S
Wind: S 10 mph , 17 km/h
Temperature: 79°F , 26°C
Dew Point: 68°F , 20°C
Humidity: 70%
Barometer: 30.00 inHg , 1015.9 hPa
Clouds: Few Clouds
Visibility: 10 miles , 16 km
Cloud details: Few Clouds 5000 ft
2021/09/23 00:53 KCDW 230053Z 17009KT 10SM FEW050 26/20 A3000 RMK AO2 SLP164 T02560200
 
KLGA - Nyc/La Guardia, New York, USA
Distance from station: ESE 12mi, 19km
Updated: 09/22/2021 9:51pm
Mostly cloudy
Mostly cloudy
 Wind from S
Wind: S 15 mph , 24 km/h
Temperature: 75°F , 24°C
Dew Point: 66°F , 19°C
Humidity: 74%
Barometer: 30.00 inHg , 1015.9 hPa
Clouds: Mostly cloudy
Visibility: 10 miles , 16 km
Cloud details: Few Clouds 1500 ft
Partly cloudy 5500 ft
Partly cloudy 9000 ft
Mostly cloudy 25000 ft
2021/09/23 01:51 KLGA 230151Z 17013KT 10SM FEW015 SCT055 SCT090 BKN250 24/19 A3000 RMK AO2 SLP160 T02440194 $
KEWR - Newark, New Jersey, USA
Distance from station: SSW 13mi, 20km
Updated: 09/22/2021 9:51pm
Partly cloudy
Partly cloudy
 Wind from SSE
Wind: SSE 8 mph , 13 km/h
Temperature: 75°F , 24°C
Dew Point: 70°F , 21°C
Humidity: 83%
Barometer: 30.00 inHg , 1015.9 hPa
Clouds: Partly cloudy
Visibility: 10 miles , 16 km
Cloud details: Few Clouds 1200 ft
Partly cloudy 3000 ft
Partly cloudy 6500 ft
2021/09/23 01:51 KEWR 230151Z 15007KT 10SM FEW012 SCT030 SCT065 24/21 A3000 RMK AO2 SLP157 T02440211 $
KMMU - Morristown Muni, New Jersey, USA
Distance from station: WSW 18mi, 29km
Updated: 09/22/2021 8:45pm
Overcast
Overcast
 Wind from S
Wind: S 8 mph , 13 km/h, Gust: 14 mph , 22 km/h
Temperature: 75°F , 24°C
Dew Point: 68°F , 20°C
Humidity: 78%
Barometer: 30.00 inHg , 1015.9 hPa
Clouds: Overcast
Visibility: 10 miles , 16 km
Cloud details: Partly cloudy 2600 ft
Mostly cloudy 3300 ft
Overcast 7000 ft
2021/09/23 00:45 KMMU 230045Z 17007G12KT 10SM SCT026 BKN033 OVC070 24/20 A3000
 
KLDJ - Linden, New Jersey, USA
Distance from station: SSW 19mi, 30km
Updated: 09/22/2021 9:15pm
Clear
Clear
 Wind from S
Wind: S 8 mph , 13 km/h
Temperature: 75°F , 24°C
Dew Point: 68°F , 20°C
Humidity: 78%
Barometer: 30.00 inHg , 1015.9 hPa
Clouds: Clear
Visibility: 10 miles , 16 km
2021/09/23 01:15 KLDJ 230115Z AUTO 17007KT 10SM CLR 24/20 A3000 RMK AO2 T02410202
KJFK - Nyc/Jfk Arpt, New York, USA
Distance from station: SE 23mi, 36km
Updated: 09/22/2021 9:51pm
Mostly cloudy
Mostly cloudy
 Wind from SE
Wind: SE 15 mph , 24 km/h
Temperature: 73°F , 23°C
Dew Point: 70°F , 21°C
Humidity: 89%
Barometer: 30.02 inHg , 1016.6 hPa
Clouds: Mostly cloudy
Visibility: 10 miles , 16 km
Cloud details: Few Clouds 8500 ft
Mostly cloudy 25000 ft
2021/09/23 01:51 KJFK 230151Z 14013KT 10SM FEW085 BKN250 23/21 A3002 RMK AO2 SLP166 T02330211
KHPN - White Plains, New York, USA
Distance from station: NE 25mi, 40km
Updated: 09/22/2021 8:56pm
Overcast
Overcast
 Wind from SSE
Wind: SSE 9 mph , 15 km/h
Temperature: 73°F , 23°C
Dew Point: 70°F , 21°C
Humidity: 89%
Barometer: 30.03 inHg , 1016.9 hPa
Clouds: Overcast
Visibility: 10 miles , 16 km
Cloud details: Partly cloudy 1400 ft
Mostly cloudy 2900 ft
Overcast 4400 ft
2021/09/23 00:56 KHPN 230056Z 15008KT 10SM SCT014 BKN029 OVC044 23/21 A3003 RMK AO2 SLP162 T02280211
 
KSMQ - Somerville, New Jersey, USA
Distance from station: WSW 35mi, 56km
Updated: 09/22/2021 8:53pm
Few Clouds
Few Clouds
 Wind from SSE
Wind: SSE 7 mph , 11 km/h
Temperature: 75°F , 24°C
Dew Point: 70°F , 21°C
Humidity: 83%
Barometer: 29.96 inHg , 1014.6 hPa
Clouds: Few Clouds
Visibility: 10 miles , 16 km
Cloud details: Few Clouds 2400 ft
2021/09/23 00:53 KSMQ 230053Z AUTO 15006KT 10SM FEW024 24/21 A2996 RMK AO2 SLP145 T02390206 $
K12N - Andover, New Jersey, USA
Distance from station: WNW 36mi, 57km
Updated: 09/22/2021 8:54pm

 Wind from S
Wind: S 8 mph , 13 km/h
Temperature: 75°F , 24°C
Dew Point: 68°F , 20°C
Humidity: 78%
Barometer: 29.99 inHg , 1015.6 hPa
2021/09/23 00:54 K12N 230054Z AUTO 19007KT 130V280 24/20 A2999 RMK AO1 SLP146 T02440200
KFRG - Farmingdale, New York, USA
Distance from station: ESE 36mi, 58km
Updated: 09/22/2021 8:53pm
Mostly cloudy
Mostly cloudy
 Wind from SSE
Wind: SSE 15 mph , 24 km/h
Temperature: 73°F , 23°C
Dew Point: 70°F , 21°C
Humidity: 89%
Barometer: 30.03 inHg , 1016.9 hPa
Clouds: Mostly cloudy
Visibility: 10 miles , 16 km
Cloud details: Mostly cloudy 6000 ft
2021/09/23 00:53 KFRG 230053Z 15013KT 10SM BKN060 23/21 A3003 RMK AO2 SLP167 T02330206
 
KFWN - Sussex, New Jersey, USA
Distance from station: NW 37mi, 60km
Updated: 09/22/2021 8:53pm
Light rain, Mostly cloudy
Light rain, Mostly cloudy
 Wind from varies
Wind: varies 5 mph , 7 km/h
Temperature: 75°F , 24°C
Dew Point: 66°F , 19°C
Humidity: 74%
Barometer: 29.99 inHg , 1015.6 hPa
Summary: Light rain
Clouds: Mostly cloudy
Visibility: 10 miles , 16 km
Cloud details: Few Clouds 2900 ft
Few Clouds 4200 ft
Mostly cloudy 5000 ft
2021/09/23 00:53 KFWN 230053Z AUTO VRB04KT 10SM -RA FEW029 FEW042 BKN050 24/19 A2999 RMK AO2 RAB30 SLP152 P0000 T02440194
KSWF - Newburgh/Stewart, New York, USA
Distance from station: 0 44mi, 72km
Updated: 09/22/2021 9:45pm
Mostly cloudy
Mostly cloudy
 Wind from SSE
Wind: SSE 9 mph , 15 km/h
Temperature: 73°F , 23°C
Dew Point: 68°F , 20°C
Humidity: 83%
Barometer: 30.01 inHg , 1016.3 hPa
Clouds: Mostly cloudy
Visibility: 10 miles , 16 km
Cloud details: Mostly cloudy 4000 ft
Mostly cloudy 6000 ft
2021/09/23 01:45 KSWF 230145Z 16008KT 10SM BKN040 BKN060 23/20 A3001
KMGJ - Montgomery, New York, USA
Distance from station: NNW 47mi, 75km
Updated: 09/22/2021 8:54pm
Overcast
Overcast
 Wind from SSE
Wind: SSE 13 mph , 20 km/h, Gust: 18 mph , 30 km/h
Temperature: 73°F , 23°C
Dew Point: 66°F , 19°C
Humidity: 78%
Barometer: 29.98 inHg , 1015.2 hPa
Clouds: Overcast
Visibility: 10 miles , 16 km
Cloud details: Few Clouds 6000 ft
Overcast 9000 ft
2021/09/23 00:54 KMGJ 230054Z AUTO 16011G16KT 10SM FEW060 OVC090 23/19 A2998 RMK AO2 SLP151 T02330194
 
KDXR - Danbury, Connecticut, USA
Distance from station: NE 47mi, 76km
Updated: 09/22/2021 9:50pm
Overcast
Overcast
 Wind from SE
Wind: SE 6 mph , 9 km/h
Temperature: 73°F , 23°C
Dew Point: 70°F , 21°C
Humidity: 89%
Barometer: 30.05 inHg , 1017.6 hPa
Clouds: Overcast
Visibility: 10 miles , 16 km
Cloud details: Few Clouds 1300 ft
Mostly cloudy 3900 ft
Overcast 4800 ft
2021/09/23 01:50 KDXR 230150Z 14005KT 10SM FEW013 BKN039 OVC048 23/21 A3005 RMK AO2
KBLM - Belmar/Farmdale, New Jersey, USA
Distance from station: S 48mi, 77km
Updated: 09/22/2021 8:56pm
Clear
Clear
 Wind from SE
Wind: SE 12 mph , 19 km/h, Gust: 18 mph , 30 km/h
Temperature: 73°F , 23°C
Dew Point: 72°F , 22°C
Humidity: 94%
Barometer: 30.01 inHg , 1016.3 hPa
Clouds: Clear
Visibility: 10 miles , 16 km
2021/09/23 00:56 KBLM 230056Z AUTO 14010G16KT 10SM CLR 23/22 A3001 RMK AO2 SLP162 T02330222 PNO $